Latest Weather Observations for Shark Bay Airport

IDW60801

Issued at 2:02 am WST Tuesday 27 January 2015 (issued every 30 minutes, with the page automatically refreshed every 10 minutes)

About weather observations | Map of weather stations | Latest weather observations for WA | Other Formats
Station Details ID: 006105 Name: SHARK BAY AIRPORT Lat: -25.89 Lon: 113.58 Height: 33.8 m
Data from the previous 72 hours. | See also: Recent months for locations in Western Australia
Date/Time
WST
Temp
°C
App
Temp
°C
Dew
Point
Rel
Hum
%
Delta-T
°C
Wind Press
QNH
hPa
Press
MSL
hPa
Rain
since 9 am
mm
Dir
 
Spd
km/h
Gust
km/h
Spd
kts
Gust
kts
27/02:00am 23.1 22.2 19.1 78 2.6 SW 22 30 12 16 1003.5 1003.3 0.0
27/01:30am 23.1 22.7 19.3 79 2.4 SW 20 30 11 16 1003.6 1003.4 0.0
27/01:00am 23.0 22.5 19.2 79 2.4 SW 20 28 11 15 1003.8 1003.6 0.0
27/12:30am 23.1 22.8 19.5 80 2.3 SW 20 30 11 16 1004.3 1004.1 0.0
27/12:00am 23.1 23.1 19.7 81 2.2 SW 19 26 10 14 1004.7 1004.5 0.0
 
Date/Time
WST
Temp
°C
App
Temp
°C
Dew
Point
Rel
Hum
%
Delta-T
°C
Wind Press
QNH
hPa
Press
MSL
hPa
Rain
since 9 am
mm
Dir
 
Spd
km/h
Gust
km/h
Spd
kts
Gust
kts
26/11:30pm 23.3 23.2 19.9 81 2.2 SW 20 28 11 15 1004.7 1004.5 0.0
26/11:00pm 23.4 23.2 19.8 80 2.3 SW 20 28 11 15 1005.0 1004.8 0.0
26/10:30pm 23.6 23.4 19.7 79 2.5 SW 20 28 11 15 1005.1 1004.9 0.0
26/10:00pm 23.8 23.6 19.7 78 2.6 SW 20 30 11 16 1005.2 1005.0 0.0
26/09:30pm 24.1 23.9 19.8 77 2.8 SW 20 30 11 16 1005.2 1005.0 0.0
26/09:00pm 24.3 24.0 19.6 75 3.0 SW 20 30 11 16 1005.3 1005.1 0.0
26/08:30pm 24.6 24.4 19.7 74 3.2 SW 20 28 11 15 1005.2 1005.0 0.0
26/08:00pm 25.1 25.1 19.7 72 3.5 SW 19 24 10 13 1004.9 1004.7 0.0
26/07:30pm 25.6 25.3 19.5 69 3.9 SW 20 32 11 17 1004.3 1004.1 0.0
26/07:00pm 26.6 25.6 19.7 66 4.5 SW 24 32 13 17 1003.8 1003.6 0.0
26/06:30pm 27.8 27.1 19.6 61 5.3 SW 22 30 12 16 1003.7 1003.5 0.0
26/06:00pm 28.6 27.4 19.2 56 6.1 SW 24 33 13 18 1003.4 1003.2 0.0
26/05:30pm 29.2 27.1 18.9 53 6.7 SW 28 35 15 19 1003.1 1002.9 0.0
26/05:00pm 30.9 28.3 17.9 45 8.4 SW 28 37 15 20 1002.9 1002.7 0.0
26/04:30pm 30.4 27.1 17.1 44 8.4 SW 30 41 16 22 1002.9 1002.7 0.0
26/04:00pm 31.3 29.0 17.6 44 8.8 SW 26 35 14 19 1003.0 1002.8 0.0
26/03:30pm 32.6 29.8 17.2 39 9.8 WSW 28 35 15 19 1003.0 1002.8 0.0
26/03:00pm 33.2 30.1 16.5 36 10.6 WSW 28 35 15 19 1003.1 1002.9 0.0
26/02:30pm 33.2 30.7 17.0 38 10.3 WSW 26 33 14 18 1003.1 1002.9 0.0
26/02:00pm 33.3 30.0 17.0 37 10.4 WSW 30 35 16 19 1003.2 1003.0 0.0
26/01:30pm 33.2 30.8 17.4 39 10.1 WSW 26 35 14 19 1003.5 1003.3 0.0
26/01:00pm 33.7 32.0 18.2 39 10.1 WSW 24 30 13 16 1003.8 1003.6 0.0
26/12:30pm 33.5 31.9 18.4 40 9.8 W 24 30 13 16 1004.1 1003.9 0.0
26/12:00pm 33.4 32.3 16.3 36 10.8 WSW 17 24 9 13 1004.3 1004.1 0.0
26/11:30am 33.4 33.0 17.1 37 10.4 WSW 15 24 8 13 1004.6 1004.4 0.0
26/11:00am 32.4 31.7 16.3 38 10.2 SW 15 20 8 11 1004.9 1004.7 0.0
26/10:30am 31.3 30.0 16.8 41 9.2 SW 19 24 10 13 1005.2 1005.0 0.0
26/10:00am 29.1 27.9 17.0 48 7.6 SW 19 26 10 14 1005.5 1005.3 0.0
26/09:30am 28.5 27.0 17.7 52 6.9 SW 22 30 12 16 1005.5 1005.3 0.0
26/09:00am 26.9 25.2 18.2 59 5.5 SSW 24 32 13 17 1005.5 1005.3 0.0
26/08:30am 26.1 24.6 18.5 63 4.8 SW 24 32 13 17 1005.5 1005.3 0.0
26/08:00am 25.5 24.4 18.7 66 4.3 SSW 22 30 12 16 1005.5 1005.3 0.0
26/07:30am 24.8 22.5 18.5 68 4.0 SSW 28 37 15 20 1005.6 1005.4 0.0
26/07:00am 23.9 22.6 19.0 74 3.1 SSW 24 35 13 19 1005.4 1005.2 0.0
26/06:30am 22.7 22.2 19.1 80 2.3 SSW 20 28 11 15 1005.2 1005.0 0.0
26/06:00am 22.2 20.8 18.8 81 2.2 SSW 24 30 13 16 1005.0 1004.8 0.0
26/05:30am 22.2 20.8 18.8 81 2.1 SSW 24 37 13 20 1004.9 1004.7 0.0
26/05:00am 22.2 20.7 18.6 80 2.3 SSW 24 33 13 18 1005.0 1004.8 0.0
26/04:30am 22.3 20.5 18.7 80 2.3 SSW 26 39 14 21 1005.0 1004.8 0.0
26/04:00am 22.4 20.5 18.6 79 2.4 SSW 26 33 14 18 1004.9 1004.7 0.0
26/03:30am 22.5 20.2 18.5 78 2.5 SSW 28 35 15 19 1004.9 1004.7 0.0
26/03:00am 22.6 20.2 18.2 76 2.8 SSW 28 39 15 21 1005.1 1004.9 0.0
26/02:30am 22.6 19.4 18.2 76 2.8 SSW 32 43 17 23 1005.5 1005.3 0.0
26/02:00am 22.7 19.6 18.3 76 2.8 SSW 32 43 17 23 1005.8 1005.6 0.0
26/01:30am 22.7 19.2 18.0 75 2.9 SSW 33 46 18 25 1005.8 1005.6 0.0
26/01:00am 22.9 19.4 17.8 73 3.2 SSW 33 46 18 25 1006.2 1006.0 0.0
26/12:30am 22.9 19.9 17.8 73 3.2 SSW 30 43 16 23 1006.6 1006.4 0.0
26/12:00am 23.0 19.0 17.5 71 3.4 SSW 35 44 19 24 1006.8 1006.6 0.0
 
Date/Time
WST
Temp
°C
App
Temp
°C
Dew
Point
Rel
Hum
%
Delta-T
°C
Wind Press
QNH
hPa
Press
MSL
hPa
Rain
since 9 am
mm
Dir
 
Spd
km/h
Gust
km/h
Spd
kts
Gust
kts
25/11:30pm 22.9 19.5 17.6 72 3.3 SSW 32 43 17 23 1007.0 1006.8 0.0
25/11:00pm 23.1 19.5 17.6 71 3.4 SSW 33 46 18 25 1007.2 1007.0 0.0
25/10:30pm 23.1 19.1 17.6 71 3.4 SSW 35 46 19 25 1007.6 1007.4 0.0
25/10:00pm 23.3 19.9 17.7 71 3.5 SSW 32 43 17 23 1007.8 1007.6 0.0
25/09:30pm 23.5 20.0 17.5 69 3.7 SSW 32 43 17 23 1007.9 1007.7 0.0
25/09:00pm 23.8 20.0 17.3 67 4.0 SSW 33 46 18 25 1007.7 1007.5 0.0
25/08:30pm 24.1 19.8 16.9 64 4.4 SSW 35 50 19 27 1007.5 1007.3 0.0
25/08:00pm 24.4 20.8 17.1 63 4.5 SSW 32 46 17 25 1007.5 1007.3 0.0
25/07:30pm 24.6 20.4 16.3 60 5.1 SSW 33 48 18 26 1007.3 1007.1 0.0
25/07:20pm 24.9 20.7 16.3 59 5.3 SSW 33 52 18 28 1007.1 1006.9 0.0
25/07:00pm 25.5 20.6 16.4 57 5.6 SSW 37 54 20 29 1007.0 1006.8 0.0
25/06:31pm 26.8 23.3 16.4 53 6.4 SSW 30 48 16 26 1006.6 1006.4 0.0
25/06:30pm 26.8 23.0 16.7 54 6.3 SSW 32 48 17 26 1006.6 1006.4 0.0
25/06:00pm 27.3 21.6 16.3 51 6.8 SSW 41 54 22 29 1006.2 1006.0 0.0
25/05:30pm 28.7 23.1 16.6 48 7.6 SSW 41 56 22 30 1006.2 1006.0 0.0
25/05:00pm 29.4 23.5 16.6 46 8.0 SSW 43 56 23 30 1006.0 1005.8 0.0
25/04:30pm 29.8 23.8 15.5 42 8.8 SSW 41 54 22 29 1006.1 1005.9 0.0
25/04:19pm 29.6 23.7 14.6 40 9.1 SSW 39 57 21 31 1006.3 1006.1 0.0
25/04:00pm 30.4 23.8 14.9 39 9.5 SSW 43 56 23 30 1006.6 1006.4 0.0
25/03:30pm 31.1 25.0 15.1 38 9.8 SSW 41 54 22 29 1006.9 1006.7 0.0
25/03:00pm 32.3 27.2 15.7 36 10.4 SSW 37 48 20 26 1007.0 1006.8 0.0
25/02:30pm 31.6 26.2 16.0 39 9.7 SSW 39 52 21 28 1007.1 1006.9 0.0
25/02:00pm 31.9 26.9 16.2 38 9.9 SSW 37 50 20 27 1007.4 1007.2 0.0
25/01:30pm 31.9 26.2 16.2 38 9.9 SSW 41 52 22 28 1007.5 1007.3 0.0
25/01:00pm 32.7 28.6 16.5 37 10.3 SSW 33 44 18 24 1007.7 1007.5 0.0
25/12:30pm 32.0 29.2 18.2 43 8.9 SSW 30 46 16 25 1008.0 1007.8 0.0
25/12:00pm 30.4 27.3 18.5 49 7.7 SSW 32 41 17 22 1008.3 1008.1 0.0
25/11:30am 30.4 27.4 17.8 46 8.1 SSW 30 44 16 24 1008.4 1008.2 0.0
25/11:00am 30.8 26.5 14.4 36 10.0 S 30 43 16 23 1008.7 1008.5 0.0
25/10:30am 29.7 25.8 16.5 45 8.3 S 32 44 17 24 1008.9 1008.7 0.0
25/10:00am 29.2 25.9 17.1 48 7.6 S 30 43 16 23 1008.9 1008.7 0.0
25/09:30am 29.2 26.5 16.7 46 7.8 S 26 37 14 20 1008.9 1008.7 0.0
25/09:00am 28.1 24.2 14.3 42 8.3 S 28 41 15 22 1009.0 1008.8 0.0
25/08:30am 27.4 23.9 15.4 48 7.3 S 28 43 15 23 1008.9 1008.7 0.0
25/08:00am 26.2 23.0 16.2 54 6.2 S 28 41 15 22 1008.9 1008.7 0.0
25/07:30am 24.8 21.0 16.8 61 4.9 S 32 43 17 23 1008.8 1008.6 0.0
25/07:02am 24.0 21.0 16.8 64 4.4 S 28 46 15 25 1008.7 1008.5 0.0
25/07:00am 24.1 21.2 17.1 65 4.3 S 28 37 15 20 1008.7 1008.5 0.0
25/06:30am 22.9 20.9 17.4 71 3.4 S 24 35 13 19 1008.4 1008.2 0.0
25/06:00am 22.3 20.6 17.2 73 3.1 S 22 33 12 18 1008.0 1007.8 0.0
25/05:30am 22.3 19.9 17.4 74 3.0 S 26 37 14 20 1007.8 1007.6 0.0
25/05:00am 22.3 19.9 17.4 74 3.0 S 26 35 14 19 1007.7 1007.5 0.0
25/04:30am 22.4 20.0 17.3 73 3.1 S 26 39 14 21 1007.7 1007.5 0.0
25/04:00am 22.3 19.5 17.4 74 3.0 S 28 35 15 19 1007.5 1007.3 0.0
25/03:30am 22.5 20.1 17.4 73 3.2 S 26 37 14 20 1007.4 1007.2 0.0
25/03:00am 22.7 19.9 17.2 71 3.4 S 28 35 15 19 1007.6 1007.4 0.0
25/02:30am 22.9 19.1 16.7 68 3.8 S 32 46 17 25 1007.4 1007.2 0.0
25/02:19am 22.9 19.7 16.2 66 4.1 S 28 48 15 26 1007.5 1007.3 0.0
25/02:00am 23.2 19.2 16.3 65 4.2 S 32 44 17 24 1007.6 1007.4 0.0
25/01:30am 23.3 19.2 15.9 63 4.5 S 32 41 17 22 1007.7 1007.5 0.0
25/01:14am 23.3 19.8 15.6 62 4.6 S 28 48 15 26 1007.8 1007.6 0.0
25/01:00am 23.4 19.2 15.7 62 4.7 S 32 44 17 24 1008.1 1007.9 0.0
25/12:30am 23.5 19.9 16.3 64 4.4 S 30 43 16 23 1008.2 1008.0 0.0
25/12:00am 23.8 19.8 16.1 62 4.7 S 32 46 17 25 1008.4 1008.2 0.0
 
Date/Time
WST
Temp
°C
App
Temp
°C
Dew
Point
Rel
Hum
%
Delta-T
°C
Wind Press
QNH
hPa
Press
MSL
hPa
Rain
since 9 am
mm
Dir
 
Spd
km/h
Gust
km/h
Spd
kts
Gust
kts
24/11:30pm 24.0 20.3 16.0 61 4.9 S 30 43 16 23 1008.4 1008.2 0.0
24/11:00pm 24.3 20.1 15.8 59 5.2 S 32 44 17 24 1008.6 1008.4 0.0
24/10:30pm 24.6 20.3 15.5 57 5.5 S 32 44 17 24 1008.6 1008.4 0.0
24/10:05pm 24.6 20.6 16.3 60 5.1 S 32 50 17 27 1008.6 1008.4 0.0
24/10:00pm 24.7 20.5 16.2 59 5.2 S 33 50 18 27 1008.6 1008.4 0.0
24/09:30pm 24.8 20.9 17.0 62 4.8 S 33 48 18 26 1008.6 1008.4 0.0
24/09:00pm 25.1 21.1 17.6 63 4.7 S 35 48 19 26 1008.4 1008.2 0.0
24/08:52pm 25.3 21.8 17.5 62 4.9 S 32 50 17 27 1008.3 1008.1 0.0
24/08:30pm 25.5 21.2 16.9 59 5.3 SSW 35 46 19 25 1008.1 1007.9 0.0
24/08:03pm 25.9 21.4 16.5 56 5.8 S 35 54 19 29 1007.9 1007.7 0.0
24/08:00pm 26.0 21.5 16.5 55 5.9 S 35 50 19 27 1007.9 1007.7 0.0
24/07:30pm 26.5 22.7 16.7 55 6.1 S 32 46 17 25 1008.0 1007.8 0.0
24/07:00pm 26.8 23.7 18.4 60 5.4 SSW 32 43 17 23 1007.7 1007.5 0.0
24/06:44pm 27.2 24.3 18.8 60 5.4 SSW 32 50 17 27 1007.4 1007.2 0.0
24/06:30pm 27.5 24.0 18.8 59 5.6 SSW 35 46 19 25 1007.3 1007.1 0.0
24/06:00pm 28.3 24.0 17.8 53 6.7 SSW 37 50 20 27 1007.2 1007.0 0.0
24/05:30pm 29.7 25.0 16.8 45 8.1 SSW 37 48 20 26 1007.2 1007.0 0.0
24/05:00pm 31.1 26.4 15.9 40 9.5 SSW 35 46 19 25 1007.2 1007.0 0.0
24/04:30pm 32.0 27.8 17.1 41 9.5 SSW 35 46 19 25 1007.2 1007.0 0.0
24/04:00pm 32.8 27.9 15.3 34 10.9 SSW 35 46 19 25 1007.1 1006.9 0.0
24/03:30pm 33.5 29.3 17.2 37 10.4 SSW 35 48 19 26 1007.3 1007.1 0.0
24/03:00pm 33.8 28.9 15.3 33 11.6 SSW 35 48 19 26 1007.4 1007.2 0.0
24/02:30pm 34.3 29.5 15.7 32 11.7 SSW 35 44 19 24 1007.4 1007.2 0.0
24/02:00pm 34.1 29.5 15.1 32 11.8 SSW 33 46 18 25 1007.4 1007.2 0.0
24/01:30pm 35.3 31.4 15.6 31 12.4 SSW 30 39 16 21 1007.7 1007.5 0.0
24/01:00pm 33.8 30.2 17.1 37 10.7 SSW 32 39 17 21 1007.8 1007.6 0.0
24/12:30pm 32.4 29.0 17.8 41 9.4 SSW 32 43 17 23 1008.2 1008.0 0.0
24/12:00pm 31.5 28.4 18.8 46 8.3 SSW 33 44 18 24 1008.5 1008.3 0.0
24/11:30am 32.3 30.3 17.4 41 9.5 SSW 24 33 13 18 1008.7 1008.5 0.0
24/11:00am 33.1 30.5 16.0 35 10.8 S 24 32 13 17 1008.8 1008.6 0.0
24/10:30am 31.5 28.8 15.5 38 9.9 S 24 35 13 19 1009.1 1008.9 0.0
24/10:00am 31.5 28.9 15.9 39 9.7 S 24 33 13 18 1009.1 1008.9 0.0
24/09:30am 30.0 26.1 14.5 38 9.4 S 28 37 15 20 1009.1 1008.9 0.0
24/09:00am 29.0 25.9 15.5 44 8.3 S 26 39 14 21 1009.2 1009.0 0.0
24/08:30am 27.3 23.6 16.0 50 7.0 S 30 39 16 21 1009.1 1008.9 0.0
24/08:00am 26.5 23.2 17.0 56 5.9 S 30 41 16 22 1009.0 1008.8 0.0
24/07:30am 25.4 21.8 17.3 61 5.1 S 32 43 17 23 1008.8 1008.6 0.0
24/07:00am 24.5 21.1 17.7 66 4.3 S 32 44 17 24 1008.4 1008.2 0.0
24/06:30am 23.5 21.2 17.7 70 3.6 S 26 37 14 20 1008.3 1008.1 0.0
24/06:00am 23.2 20.9 17.6 71 3.5 S 26 39 14 21 1008.1 1007.9 0.0
24/05:30am 23.3 21.0 17.5 70 3.6 S 26 37 14 20 1007.9 1007.7 0.0
24/05:00am 23.4 21.3 17.2 68 3.8 S 24 33 13 18 1007.7 1007.5 0.0
24/04:30am 23.5 21.3 17.0 67 4.0 S 24 33 13 18 1007.7 1007.5 0.0
24/04:00am 23.6 21.9 17.1 67 4.0 S 22 35 12 19 1007.8 1007.6 0.0
24/03:30am 23.8 22.1 17.3 67 4.0 S 22 32 12 17 1007.7 1007.5 0.0
24/03:00am 23.7 22.6 17.7 69 3.7 S 20 30 11 16 1007.9 1007.7 0.0
24/02:30am 23.7 22.7 17.9 70 3.6 S 20 30 11 16 1007.9 1007.7 0.0

Other Formats:

Comma delimited format used in spreadsheet applications
http://www.bom.gov.au/fwo/IDW60801/IDW60801.95402.axf

JavaScript Object Notation format (JSON) in row-major order
http://www.bom.gov.au/fwo/IDW60801/IDW60801.95402.json